Elda A — WDH6629 — position and weather

sailwx.info

Track history (hours):
 
Tides and Currents Weather Stations Pressure Air Temp Water Temp Dewpoint Dewpoint Depression Visibility Wind Speed Wind Dir Waves Ship Positions

Elda A

Owner: REC Marine Logistics, Galliano, LA. More information available from US FCC via Universal Licensing System and Coast Guard Vessel Documentation Center.

Last reported at 2018-Jun-16 17:54 UTC. Time now 2018-Jun-20 08:53 UTC.
Position N 29°34' W 090°29'.

Length 14 m.

Type: Tug. MMSI: 367639990.

Date/timePositionNaut miles runAvg speedWind from/ knotsBaromVisibWave heightAir tempDewpointWater temp
2018-Jun-16 17:54N 29°34' W 090°29'4 8.8
2018-Jun-16 17:30N 29°34' W 090°33'3 6.8
2018-Jun-16 17:00N 29°35' W 090°37'3 6.3
2018-Jun-16 16:30N 29°36' W 090°40'0 0.0
2018-Jun-16 16:00N 29°36' W 090°40'0 0.0
2018-Jun-16 15:30N 29°36' W 090°40'0 0.0
2018-Jun-16 15:00N 29°36' W 090°40'2 4.9
2018-Jun-16 14:30N 29°36' W 090°43'3 5.0
2018-Jun-16 14:00N 29°34' W 090°44'3 6.7
2018-Jun-16 13:30N 29°32' W 090°47'4 8.8
2018-Jun-16 13:00N 29°32' W 090°52'4 7.8
2018-Jun-16 12:30N 29°34' W 090°56'54 5.7
2018-Jun-16 03:05N 29°51' W 091°55'1 8.1
2018-Jun-16 03:00N 29°51' W 091°56'4 7.4
2018-Jun-16 02:30N 29°50' W 091°60'4 7.8
2018-Jun-16 02:00N 29°48' W 092°04'4 7.6
2018-Jun-16 01:30N 29°47' W 092°08'3 6.9
2018-Jun-16 01:00N 29°47' W 092°12'1 1.1
2018-Jun-16 00:30N 29°47' W 092°13'1 3.0
2018-Jun-16 00:00N 29°48' W 092°14'3 6.3
2018-Jun-15 23:30N 29°49' W 092°17'3 6.7
2018-Jun-15 23:00N 29°51' W 092°21'3 6.7
2018-Jun-15 22:30N 29°53' W 092°24'4 7.1
2018-Jun-15 21:54N 29°54' W 092°29'30 6.6
2018-Jun-15 17:22N 29°56' W 093°03'2 5.2
2018-Jun-15 17:00N 29°56' W 093°05'2 4.5
2018-Jun-15 16:30N 29°56' W 093°08'1 1.7
2018-Jun-15 15:56N 29°57' W 093°09'0 0.0
2018-Jun-15 15:30N 29°57' W 093°09'0 0.0
2018-Jun-15 14:28N 29°57' W 093°09'0 0.1
2018-Jun-15 14:00N 29°57' W 093°09'0 0.0
2018-Jun-15 13:30N 29°57' W 093°09'0 0.0
2018-Jun-15 12:59N 29°57' W 093°09'0 0.0
2018-Jun-15 12:30N 29°57' W 093°09'0 0.1
2018-Jun-15 12:00N 29°57' W 093°09'0 0.0
2018-Jun-15 11:30N 29°57' W 093°09'0 0.0
2018-Jun-15 10:58N 29°57' W 093°09'0 0.0
2018-Jun-15 10:27N 29°57' W 093°09'0 0.0
2018-Jun-15 10:00N 29°57' W 093°09'0 0.0
2018-Jun-15 09:30N 29°57' W 093°09'0 0.0
2018-Jun-15 09:00N 29°57' W 093°09'0 0.0
2018-Jun-15 08:30N 29°57' W 093°09'0 0.0
2018-Jun-15 08:00N 29°57' W 093°09'0 0.0
2018-Jun-15 07:30N 29°57' W 093°09'0 0.0
2018-Jun-15 06:58N 29°57' W 093°09'0 0.0
2018-Jun-15 06:30N 29°57' W 093°09'0 0.0
2018-Jun-15 06:00N 29°57' W 093°09'0 0.0
2018-Jun-15 05:30N 29°57' W 093°09'0 0.0
2018-Jun-15 05:00N 29°57' W 093°09'0 0.0
2018-Jun-15 04:30N 29°57' W 093°09'0 0.0
2018-Jun-15 03:57N 29°57' W 093°09'0 0.0
2018-Jun-15 03:30N 29°57' W 093°09'0 0.0
2018-Jun-15 03:00N 29°57' W 093°09'0 0.0
2018-Jun-15 02:30N 29°57' W 093°09'0 0.0
2018-Jun-15 02:00N 29°57' W 093°09'0 0.0
2018-Jun-15 01:30N 29°57' W 093°09'0 0.1
2018-Jun-15 01:00N 29°57' W 093°09'0 0.2
2018-Jun-15 00:30N 29°57' W 093°09'0 0.1
2018-Jun-14 23:59N 29°57' W 093°09'0 0.0
2018-Jun-14 23:29N 29°57' W 093°09'0 0.2
2018-Jun-14 23:00N 29°57' W 093°09'0 0.1
2018-Jun-14 22:30N 29°57' W 093°09'0 0.1
2018-Jun-14 22:00N 29°57' W 093°09'0 0.0
2018-Jun-14 21:30N 29°57' W 093°09'0 0.0
2018-Jun-14 21:00N 29°57' W 093°09'0 0.0
2018-Jun-14 20:30N 29°57' W 093°09'0 0.0
2018-Jun-14 20:00N 29°57' W 093°09'0 0.0
2018-Jun-14 19:30N 29°57' W 093°09'0 0.0
2018-Jun-14 19:00N 29°57' W 093°09'0 0.0
2018-Jun-14 18:30N 29°56' W 093°09'0 0.0
2018-Jun-14 18:00N 29°56' W 093°09'0 0.0
2018-Jun-14 17:30N 29°56' W 093°09'0 0.0
2018-Jun-14 17:00N 29°56' W 093°09'0 0.0
2018-Jun-14 16:30N 29°56' W 093°09'0 0.0
2018-Jun-14 16:00N 29°56' W 093°09'0 0.0
2018-Jun-14 15:26N 29°56' W 093°09'0 0.0
2018-Jun-14 15:00N 29°56' W 093°09'0 0.0
2018-Jun-14 14:30N 29°56' W 093°09'0 0.0
2018-Jun-14 13:58N 29°56' W 093°09'0 0.0
2018-Jun-14 13:29N 29°56' W 093°09'0 0.0
2018-Jun-14 12:59N 29°56' W 093°09'0 0.4
2018-Jun-14 12:30N 29°57' W 093°09'0 0.4
2018-Jun-14 11:58N 29°56' W 093°09'0 0.5
2018-Jun-14 11:28N 29°57' W 093°09'0 0.5
2018-Jun-14 11:00N 29°56' W 093°09'0 0.0
2018-Jun-14 10:30N 29°56' W 093°09'0 0.0
2018-Jun-14 10:00N 29°56' W 093°09'0 0.0
2018-Jun-14 09:30N 29°56' W 093°09'0 0.0
2018-Jun-14 09:00N 29°56' W 093°09'0 0.0
2018-Jun-14 08:30N 29°56' W 093°09'0 0.0
2018-Jun-14 08:00N 29°56' W 093°09'0 0.0
2018-Jun-14 07:26N 29°56' W 093°09'0 0.0
2018-Jun-14 07:00N 29°56' W 093°09'0 0.0
2018-Jun-14 06:30N 29°56' W 093°09'0 0.0
2018-Jun-14 06:00N 29°56' W 093°09'0 0.0
2018-Jun-14 05:30N 29°56' W 093°09'0 0.0
2018-Jun-14 04:59N 29°56' W 093°09'0 0.0
2018-Jun-14 04:30N 29°56' W 093°09'0 0.0
2018-Jun-14 03:59N 29°56' W 093°09'0 0.0
2018-Jun-14 03:30N 29°56' W 093°09'0 0.0
2018-Jun-14 03:00N 29°56' W 093°09'0 0.0
2018-Jun-14 02:30N 29°56' W 093°09'0 0.0
2018-Jun-14 02:00N 29°56' W 093°09'0 0.0
2018-Jun-14 01:30N 29°56' W 093°09'0 0.0
2018-Jun-14 01:00N 29°56' W 093°09'0 0.4
2018-Jun-14 00:30N 29°56' W 093°09'0 0.0
2018-Jun-14 00:00N 29°56' W 093°09'0 0.3
2018-Jun-13 23:30N 29°56' W 093°09'0 0.3
2018-Jun-13 22:59N 29°56' W 093°09'0 0.2
2018-Jun-13 22:29N 29°56' W 093°09'0 0.7
2018-Jun-13 21:56N 29°56' W 093°09'0 0.0
2018-Jun-13 21:30N 29°56' W 093°09'1 1.0
2018-Jun-13 21:00N 29°56' W 093°09'0 0.2
2018-Jun-13 20:30N 29°56' W 093°09'0 0.0
2018-Jun-13 19:59N 29°56' W 093°09'0 0.0
2018-Jun-13 19:30N 29°56' W 093°09'0 0.1
2018-Jun-13 19:00N 29°56' W 093°09'0 0.0
2018-Jun-13 18:30N 29°56' W 093°09'0 0.1
2018-Jun-13 18:00N 29°56' W 093°09'0 0.2
2018-Jun-13 17:30N 29°56' W 093°09'2 3.4
2018-Jun-13 16:59N 29°56' W 093°07'2 3.7
2018-Jun-13 16:30N 29°56' W 093°05'33 3.5
2018-Jun-13 07:04N 29°54' W 092°27'2 3.9
2018-Jun-13 06:35N 29°53' W 092°25'1 3.9
2018-Jun-13 06:23N 29°53' W 092°24'1 3.7
2018-Jun-13 05:59N 29°52' W 092°23'2 3.5
2018-Jun-13 05:30N 29°51' W 092°21'2 4.0
2018-Jun-13 04:59N 29°50' W 092°19'2 3.4
2018-Jun-13 04:30N 29°49' W 092°18'2 3.9
2018-Jun-13 03:59N 29°48' W 092°15'2 3.3
2018-Jun-13 03:30N 29°48' W 092°14'1 2.1
2018-Jun-13 03:00N 29°47' W 092°13'1 1.7
2018-Jun-13 02:30N 29°47' W 092°12'0 0.6
2018-Jun-13 02:00N 29°47' W 092°12'0 0.9
2018-Jun-13 01:30N 29°47' W 092°11'2 3.5
2018-Jun-13 01:00N 29°47' W 092°09'2 4.6
2018-Jun-13 00:30N 29°48' W 092°07'2 4.5
2018-Jun-13 00:00N 29°48' W 092°04'2 3.6
2018-Jun-12 23:30N 29°49' W 092°02'2 3.4
2018-Jun-12 23:00N 29°50' W 092°00'2 4.5
2018-Jun-12 22:30N 29°50' W 091°58'  
2018-Jun-10 02:02N 29°34' W 090°57'1 8.1
2018-Jun-10 01:57N 29°34' W 090°56'5 7.9
2018-Jun-10 01:23N 29°32' W 090°51'3 7.9
2018-Jun-10 01:00N 29°32' W 090°48'3 6.5
2018-Jun-10 00:30N 29°34' W 090°45'2 3.1
2018-Jun-10 00:01N 29°34' W 090°43'0 0.6
2018-Jun-09 23:30N 29°34' W 090°43'0 0.0
2018-Jun-09 22:59N 29°34' W 090°43'1 1.8
2018-Jun-09 22:31N 29°35' W 090°43'0 0.0
2018-Jun-09 22:00N 29°35' W 090°43'0 0.0
2018-Jun-09 21:31N 29°35' W 090°43'0 0.0
2018-Jun-09 21:00N 29°35' W 090°43'0 0.0
2018-Jun-09 20:30N 29°35' W 090°43'0 0.0
2018-Jun-09 20:01N 29°35' W 090°43'0 0.0
2018-Jun-09 19:30N 29°35' W 090°43'0 0.0
2018-Jun-09 19:00N 29°35' W 090°43'0 0.0
2018-Jun-09 18:30N 29°35' W 090°43'2 3.4
2018-Jun-09 18:00N 29°37' W 090°43'4 7.8
2018-Jun-09 17:30N 29°35' W 090°38'2 4.3
2018-Jun-09 17:00N 29°35' W 090°36'3 5.7
2018-Jun-09 16:30N 29°36' W 090°39'3 6.4
2018-Jun-09 16:00N 29°36' W 090°43'2 2.0
2018-Jun-09 14:59N 29°34' W 090°43'0 0.0
2018-Jun-09 14:30N 29°34' W 090°43'0 0.0
2018-Jun-09 14:01N 29°34' W 090°43'0 0.0
2018-Jun-09 13:28N 29°34' W 090°43'0 0.0
2018-Jun-09 13:00N 29°34' W 090°43'0 0.0
2018-Jun-09 12:31N 29°34' W 090°43'0 0.1
2018-Jun-09 12:00N 29°34' W 090°43'0 0.1
2018-Jun-09 11:27N 29°34' W 090°43'0 0.0
2018-Jun-09 10:49N 29°34' W 090°43'0 0.0
2018-Jun-09 10:24N 29°34' W 090°43'0 0.0
2018-Jun-09 09:17N 29°34' W 090°43'0 0.0
2018-Jun-09 08:49N 29°34' W 090°43'0 0.0
2018-Jun-09 08:28N 29°34' W 090°43'0 0.0
2018-Jun-09 07:59N 29°34' W 090°43'0 0.0
2018-Jun-09 07:30N 29°34' W 090°43'0 0.0
2018-Jun-09 06:56N 29°34' W 090°43'0 0.0
2018-Jun-09 06:30N 29°34' W 090°43'0 0.0
2018-Jun-09 05:59N 29°34' W 090°43'0 0.0
2018-Jun-09 05:30N 29°34' W 090°43'0 0.0
2018-Jun-09 04:56N 29°34' W 090°43'0 0.0
2018-Jun-09 04:28N 29°34' W 090°43'0 0.0
2018-Jun-09 01:59N 29°34' W 090°43'0 0.0
2018-Jun-09 01:29N 29°34' W 090°43'0 0.0
2018-Jun-09 01:00N 29°34' W 090°43'0 0.0
2018-Jun-09 00:29N 29°34' W 090°43'0 0.1
2018-Jun-09 00:00N 29°34' W 090°43'2 4.5
2018-Jun-08 23:30N 29°32' W 090°42'4 6.9
2018-Jun-08 22:59N 29°28' W 090°43'3 7.0
2018-Jun-08 22:30N 29°25' W 090°43'  
Track history (hours):
 
Tides and Currents Weather Stations Pressure Air Temp Water Temp Dewpoint Dewpoint Depression Visibility Wind Speed Wind Dir Waves Ship Positions

Elda A

Owner: REC Marine Logistics, Galliano, LA. More information available from US FCC via Universal Licensing System and Coast Guard Vessel Documentation Center.

Last reported at 2018-Jun-16 17:54 UTC. Time now 2018-Jun-20 08:53 UTC.
Position N 29°34' W 090°29'.

Length 14 m.

Type: Tug. MMSI: 367639990.

Date/timePositionNaut miles runAvg speedWind from/ knotsBaromVisibWave heightAir tempDewpointWater temp
2018-Jun-16 17:54N 29°34' W 090°29'4 8.8
2018-Jun-16 17:30N 29°34' W 090°33'3 6.8
2018-Jun-16 17:00N 29°35' W 090°37'3 6.3
2018-Jun-16 16:30N 29°36' W 090°40'0 0.0
2018-Jun-16 16:00N 29°36' W 090°40'0 0.0
2018-Jun-16 15:30N 29°36' W 090°40'0 0.0
2018-Jun-16 15:00N 29°36' W 090°40'2 4.9
2018-Jun-16 14:30N 29°36' W 090°43'3 5.0
2018-Jun-16 14:00N 29°34' W 090°44'3 6.7
2018-Jun-16 13:30N 29°32' W 090°47'4 8.8
2018-Jun-16 13:00N 29°32' W 090°52'4 7.8
2018-Jun-16 12:30N 29°34' W 090°56'54 5.7
2018-Jun-16 03:05N 29°51' W 091°55'1 8.1
2018-Jun-16 03:00N 29°51' W 091°56'4 7.4
2018-Jun-16 02:30N 29°50' W 091°60'4 7.8
2018-Jun-16 02:00N 29°48' W 092°04'4 7.6
2018-Jun-16 01:30N 29°47' W 092°08'3 6.9
2018-Jun-16 01:00N 29°47' W 092°12'1 1.1
2018-Jun-16 00:30N 29°47' W 092°13'1 3.0
2018-Jun-16 00:00N 29°48' W 092°14'3 6.3
2018-Jun-15 23:30N 29°49' W 092°17'3 6.7
2018-Jun-15 23:00N 29°51' W 092°21'3 6.7
2018-Jun-15 22:30N 29°53' W 092°24'4 7.1
2018-Jun-15 21:54N 29°54' W 092°29'30 6.6
2018-Jun-15 17:22N 29°56' W 093°03'2 5.2
2018-Jun-15 17:00N 29°56' W 093°05'2 4.5
2018-Jun-15 16:30N 29°56' W 093°08'1 1.7
2018-Jun-15 15:56N 29°57' W 093°09'0 0.0
2018-Jun-15 15:30N 29°57' W 093°09'0 0.0
2018-Jun-15 14:28N 29°57' W 093°09'0 0.1
2018-Jun-15 14:00N 29°57' W 093°09'0 0.0
2018-Jun-15 13:30N 29°57' W 093°09'0 0.0
2018-Jun-15 12:59N 29°57' W 093°09'0 0.0
2018-Jun-15 12:30N 29°57' W 093°09'0 0.1
2018-Jun-15 12:00N 29°57' W 093°09'0 0.0
2018-Jun-15 11:30N 29°57' W 093°09'0 0.0
2018-Jun-15 10:58N 29°57' W 093°09'0 0.0
2018-Jun-15 10:27N 29°57' W 093°09'0 0.0
2018-Jun-15 10:00N 29°57' W 093°09'0 0.0
2018-Jun-15 09:30N 29°57' W 093°09'0 0.0
2018-Jun-15 09:00N 29°57' W 093°09'0 0.0
2018-Jun-15 08:30N 29°57' W 093°09'0 0.0
2018-Jun-15 08:00N 29°57' W 093°09'0 0.0
2018-Jun-15 07:30N 29°57' W 093°09'0 0.0
2018-Jun-15 06:58N 29°57' W 093°09'0 0.0
2018-Jun-15 06:30N 29°57' W 093°09'0 0.0
2018-Jun-15 06:00N 29°57' W 093°09'0 0.0
2018-Jun-15 05:30N 29°57' W 093°09'0 0.0
2018-Jun-15 05:00N 29°57' W 093°09'0 0.0
2018-Jun-15 04:30N 29°57' W 093°09'0 0.0
2018-Jun-15 03:57N 29°57' W 093°09'0 0.0
2018-Jun-15 03:30N 29°57' W 093°09'0 0.0
2018-Jun-15 03:00N 29°57' W 093°09'0 0.0
2018-Jun-15 02:30N 29°57' W 093°09'0 0.0
2018-Jun-15 02:00N 29°57' W 093°09'0 0.0
2018-Jun-15 01:30N 29°57' W 093°09'0 0.1
2018-Jun-15 01:00N 29°57' W 093°09'0 0.2
2018-Jun-15 00:30N 29°57' W 093°09'0 0.1
2018-Jun-14 23:59N 29°57' W 093°09'0 0.0
2018-Jun-14 23:29N 29°57' W 093°09'0 0.2
2018-Jun-14 23:00N 29°57' W 093°09'0 0.1
2018-Jun-14 22:30N 29°57' W 093°09'0 0.1
2018-Jun-14 22:00N 29°57' W 093°09'0 0.0
2018-Jun-14 21:30N 29°57' W 093°09'0 0.0
2018-Jun-14 21:00N 29°57' W 093°09'0 0.0
2018-Jun-14 20:30N 29°57' W 093°09'0 0.0
2018-Jun-14 20:00N 29°57' W 093°09'0 0.0
2018-Jun-14 19:30N 29°57' W 093°09'0 0.0
2018-Jun-14 19:00N 29°57' W 093°09'0 0.0
2018-Jun-14 18:30N 29°56' W 093°09'0 0.0
2018-Jun-14 18:00N 29°56' W 093°09'0 0.0
2018-Jun-14 17:30N 29°56' W 093°09'0 0.0
2018-Jun-14 17:00N 29°56' W 093°09'0 0.0
2018-Jun-14 16:30N 29°56' W 093°09'0 0.0
2018-Jun-14 16:00N 29°56' W 093°09'0 0.0
2018-Jun-14 15:26N 29°56' W 093°09'0 0.0
2018-Jun-14 15:00N 29°56' W 093°09'0 0.0
2018-Jun-14 14:30N 29°56' W 093°09'0 0.0
2018-Jun-14 13:58N 29°56' W 093°09'0 0.0
2018-Jun-14 13:29N 29°56' W 093°09'0 0.0
2018-Jun-14 12:59N 29°56' W 093°09'0 0.4
2018-Jun-14 12:30N 29°57' W 093°09'0 0.4
2018-Jun-14 11:58N 29°56' W 093°09'0 0.5
2018-Jun-14 11:28N 29°57' W 093°09'0 0.5
2018-Jun-14 11:00N 29°56' W 093°09'0 0.0
2018-Jun-14 10:30N 29°56' W 093°09'0 0.0
2018-Jun-14 10:00N 29°56' W 093°09'0 0.0
2018-Jun-14 09:30N 29°56' W 093°09'0 0.0
2018-Jun-14 09:00N 29°56' W 093°09'0 0.0
2018-Jun-14 08:30N 29°56' W 093°09'0 0.0
2018-Jun-14 08:00N 29°56' W 093°09'0 0.0
2018-Jun-14 07:26N 29°56' W 093°09'0 0.0
2018-Jun-14 07:00N 29°56' W 093°09'0 0.0
2018-Jun-14 06:30N 29°56' W 093°09'0 0.0
2018-Jun-14 06:00N 29°56' W 093°09'0 0.0
2018-Jun-14 05:30N 29°56' W 093°09'0 0.0
2018-Jun-14 04:59N 29°56' W 093°09'0 0.0
2018-Jun-14 04:30N 29°56' W 093°09'0 0.0
2018-Jun-14 03:59N 29°56' W 093°09'0 0.0
2018-Jun-14 03:30N 29°56' W 093°09'0 0.0
2018-Jun-14 03:00N 29°56' W 093°09'0 0.0
2018-Jun-14 02:30N 29°56' W 093°09'0 0.0
2018-Jun-14 02:00N 29°56' W 093°09'0 0.0
2018-Jun-14 01:30N 29°56' W 093°09'0 0.0
2018-Jun-14 01:00N 29°56' W 093°09'0 0.4
2018-Jun-14 00:30N 29°56' W 093°09'0 0.0
2018-Jun-14 00:00N 29°56' W 093°09'0 0.3
2018-Jun-13 23:30N 29°56' W 093°09'0 0.3
2018-Jun-13 22:59N 29°56' W 093°09'0 0.2
2018-Jun-13 22:29N 29°56' W 093°09'0 0.7
2018-Jun-13 21:56N 29°56' W 093°09'0 0.0
2018-Jun-13 21:30N 29°56' W 093°09'1 1.0
2018-Jun-13 21:00N 29°56' W 093°09'0 0.2
2018-Jun-13 20:30N 29°56' W 093°09'0 0.0
2018-Jun-13 19:59N 29°56' W 093°09'0 0.0
2018-Jun-13 19:30N 29°56' W 093°09'0 0.1
2018-Jun-13 19:00N 29°56' W 093°09'0 0.0
2018-Jun-13 18:30N 29°56' W 093°09'0 0.1
2018-Jun-13 18:00N 29°56' W 093°09'0 0.2
2018-Jun-13 17:30N 29°56' W 093°09'2 3.4
2018-Jun-13 16:59N 29°56' W 093°07'2 3.7
2018-Jun-13 16:30N 29°56' W 093°05'33 3.5
2018-Jun-13 07:04N 29°54' W 092°27'2 3.9
2018-Jun-13 06:35N 29°53' W 092°25'1 3.9
2018-Jun-13 06:23N 29°53' W 092°24'1 3.7
2018-Jun-13 05:59N 29°52' W 092°23'2 3.5
2018-Jun-13 05:30N 29°51' W 092°21'2 4.0
2018-Jun-13 04:59N 29°50' W 092°19'2 3.4
2018-Jun-13 04:30N 29°49' W 092°18'2 3.9
2018-Jun-13 03:59N 29°48' W 092°15'2 3.3
2018-Jun-13 03:30N 29°48' W 092°14'1 2.1
2018-Jun-13 03:00N 29°47' W 092°13'1 1.7
2018-Jun-13 02:30N 29°47' W 092°12'0 0.6
2018-Jun-13 02:00N 29°47' W 092°12'0 0.9
2018-Jun-13 01:30N 29°47' W 092°11'2 3.5
2018-Jun-13 01:00N 29°47' W 092°09'2 4.6
2018-Jun-13 00:30N 29°48' W 092°07'2 4.5
2018-Jun-13 00:00N 29°48' W 092°04'2 3.6
2018-Jun-12 23:30N 29°49' W 092°02'2 3.4
2018-Jun-12 23:00N 29°50' W 092°00'2 4.5
2018-Jun-12 22:30N 29°50' W 091°58'  
2018-Jun-10 02:02N 29°34' W 090°57'1 8.1
2018-Jun-10 01:57N 29°34' W 090°56'5 7.9
2018-Jun-10 01:23N 29°32' W 090°51'3 7.9
2018-Jun-10 01:00N 29°32' W 090°48'3 6.5
2018-Jun-10 00:30N 29°34' W 090°45'2 3.1
2018-Jun-10 00:01N 29°34' W 090°43'0 0.6
2018-Jun-09 23:30N 29°34' W 090°43'0 0.0
2018-Jun-09 22:59N 29°34' W 090°43'1 1.8
2018-Jun-09 22:31N 29°35' W 090°43'0 0.0
2018-Jun-09 22:00N 29°35' W 090°43'0 0.0
2018-Jun-09 21:31N 29°35' W 090°43'0 0.0
2018-Jun-09 21:00N 29°35' W 090°43'0 0.0
2018-Jun-09 20:30N 29°35' W 090°43'0 0.0
2018-Jun-09 20:01N 29°35' W 090°43'0 0.0
2018-Jun-09 19:30N 29°35' W 090°43'0 0.0
2018-Jun-09 19:00N 29°35' W 090°43'0 0.0
2018-Jun-09 18:30N 29°35' W 090°43'2 3.4
2018-Jun-09 18:00N 29°37' W 090°43'4 7.8
2018-Jun-09 17:30N 29°35' W 090°38'2 4.3
2018-Jun-09 17:00N 29°35' W 090°36'3 5.7
2018-Jun-09 16:30N 29°36' W 090°39'3 6.4
2018-Jun-09 16:00N 29°36' W 090°43'2 2.0
2018-Jun-09 14:59N 29°34' W 090°43'0 0.0
2018-Jun-09 14:30N 29°34' W 090°43'0 0.0
2018-Jun-09 14:01N 29°34' W 090°43'0 0.0
2018-Jun-09 13:28N 29°34' W 090°43'0 0.0
2018-Jun-09 13:00N 29°34' W 090°43'0 0.0
2018-Jun-09 12:31N 29°34' W 090°43'0 0.1
2018-Jun-09 12:00N 29°34' W 090°43'0 0.1
2018-Jun-09 11:27N 29°34' W 090°43'0 0.0
2018-Jun-09 10:49N 29°34' W 090°43'0 0.0
2018-Jun-09 10:24N 29°34' W 090°43'0 0.0
2018-Jun-09 09:17N 29°34' W 090°43'0 0.0
2018-Jun-09 08:49N 29°34' W 090°43'0 0.0
2018-Jun-09 08:28N 29°34' W 090°43'0 0.0
2018-Jun-09 07:59N 29°34' W 090°43'0 0.0
2018-Jun-09 07:30N 29°34' W 090°43'0 0.0
2018-Jun-09 06:56N 29°34' W 090°43'0 0.0
2018-Jun-09 06:30N 29°34' W 090°43'0 0.0
2018-Jun-09 05:59N 29°34' W 090°43'0 0.0
2018-Jun-09 05:30N 29°34' W 090°43'0 0.0
2018-Jun-09 04:56N 29°34' W 090°43'0 0.0
2018-Jun-09 04:28N 29°34' W 090°43'0 0.0
2018-Jun-09 01:59N 29°34' W 090°43'0 0.0
2018-Jun-09 01:29N 29°34' W 090°43'0 0.0
2018-Jun-09 01:00N 29°34' W 090°43'0 0.0
2018-Jun-09 00:29N 29°34' W 090°43'0 0.1
2018-Jun-09 00:00N 29°34' W 090°43'2 4.5
2018-Jun-08 23:30N 29°32' W 090°42'4 6.9
2018-Jun-08 22:59N 29°28' W 090°43'3 7.0
2018-Jun-08 22:30N 29°25' W 090°43'  

Dump ship's entire track history